sensor_id;sensor_type;location;lat;lon;timestamp;pressure;altitude;pressure_sealevel;temperature;humidity
56630;BME280;42502;40.732;-74.254;2023-06-26T00:00:48;99964.31;;;29.24;52.12
56630;BME280;42502;40.732;-74.254;2023-06-26T00:02:49;99964.31;;;29.24;52.08
56630;BME280;42502;40.732;-74.254;2023-06-26T00:04:49;99955.78;;;29.24;51.99
56630;BME280;42502;40.732;-74.254;2023-06-26T00:06:54;99951.69;;;29.26;51.56
56630;BME280;42502;40.732;-74.254;2023-06-26T00:08:55;99948.84;;;29.26;51.66
56630;BME280;42502;40.732;-74.254;2023-06-26T00:10:56;99940.31;;;29.26;51.86
56630;BME280;42502;40.732;-74.254;2023-06-26T00:12:57;99943.97;;;29.26;51.90
56630;BME280;42502;40.732;-74.254;2023-06-26T00:14:58;99935.06;;;29.24;51.40
56630;BME280;42502;40.732;-74.254;2023-06-26T00:16:59;99922.53;;;29.21;51.36
56630;BME280;42502;40.732;-74.254;2023-06-26T00:19:00;99929.75;;;29.26;51.46
56630;BME280;42502;40.732;-74.254;2023-06-26T00:21:01;99929.75;;;29.26;51.36
56630;BME280;42502;40.732;-74.254;2023-06-26T00:23:01;99928.50;;;29.27;51.29
56630;BME280;42502;40.732;-74.254;2023-06-26T00:25:07;99922.81;;;29.27;51.70
56630;BME280;42502;40.732;-74.254;2023-06-26T00:27:08;99920.41;;;29.26;51.67
56630;BME280;42502;40.732;-74.254;2023-06-26T00:29:09;99922.03;;;29.27;51.21
56630;BME280;42502;40.732;-74.254;2023-06-26T00:31:10;99922.03;;;29.27;51.54
56630;BME280;42502;40.732;-74.254;2023-06-26T00:33:11;99910.66;;;29.27;51.50
56630;BME280;42502;40.732;-74.254;2023-06-26T00:35:11;99909.84;;;29.26;51.66
56630;BME280;42502;40.732;-74.254;2023-06-26T00:37:12;99907.78;;;29.27;51.21
56630;BME280;42502;40.732;-74.254;2023-06-26T00:39:13;99928.50;;;29.27;51.62
56630;BME280;42502;40.732;-74.254;2023-06-26T00:41:14;99929.31;;;29.28;51.12
56630;BME280;42502;40.732;-74.254;2023-06-26T00:43:15;99927.72;;;29.27;51.47
56630;BME280;42502;40.732;-74.254;2023-06-26T00:45:16;99926.47;;;29.28;51.21
56630;BME280;42502;40.732;-74.254;2023-06-26T00:47:17;99917.94;;;29.28;51.24
56630;BME280;42502;40.732;-74.254;2023-06-26T00:49:18;99917.94;;;29.28;51.45
56630;BME280;42502;40.732;-74.254;2023-06-26T00:51:19;99917.94;;;29.28;50.99
56630;BME280;42502;40.732;-74.254;2023-06-26T00:53:21;99924.44;;;29.28;51.49
56630;BME280;42502;40.732;-74.254;2023-06-26T00:55:22;99927.72;;;29.27;51.38
56630;BME280;42502;40.732;-74.254;2023-06-26T00:57:22;99917.13;;;29.27;51.24
56630;BME280;42502;40.732;-74.254;2023-06-26T00:59:23;99913.50;;;29.27;50.96
56630;BME280;42502;40.732;-74.254;2023-06-26T01:01:24;99917.13;;;29.27;51.50
56630;BME280;42502;40.732;-74.254;2023-06-26T01:03:26;99927.72;;;29.27;51.13
56630;BME280;42502;40.732;-74.254;2023-06-26T01:05:28;99927.72;;;29.27;51.07
56630;BME280;42502;40.732;-74.254;2023-06-26T01:07:29;99933.41;;;29.27;51.01
56630;BME280;42502;40.732;-74.254;2023-06-26T01:09:34;99948.84;;;29.26;51.06
56630;BME280;42502;40.732;-74.254;2023-06-26T01:11:35;99960.22;;;29.26;50.90
56630;BME280;42502;40.732;-74.254;2023-06-26T01:13:36;99955.38;;;29.26;51.19
56630;BME280;42502;40.732;-74.254;2023-06-26T01:15:37;99947.25;;;29.24;51.17
56630;BME280;42502;40.732;-74.254;2023-06-26T01:17:39;99950.47;;;29.27;51.11
56630;BME280;42502;40.732;-74.254;2023-06-26T01:19:41;99947.25;;;29.24;51.20
56630;BME280;42502;40.732;-74.254;2023-06-26T01:21:44;99955.38;;;29.26;51.60
56630;BME280;42502;40.732;-74.254;2023-06-26T01:24:02;99952.13;;;29.24;51.65
56630;BME280;42502;40.732;-74.254;2023-06-26T01:26:22;99955.41;;;29.22;51.14
56630;BME280;42502;40.732;-74.254;2023-06-26T01:28:27;99946.13;;;29.18;49.41
56630;BME280;42502;40.732;-74.254;2023-06-26T01:30:41;99944.25;;;29.08;47.72
56630;BME280;42502;40.732;-74.254;2023-06-26T01:32:43;99950.16;;;28.94;46.47
56630;BME280;42502;40.732;-74.254;2023-06-26T01:34:45;99954.81;;;28.80;45.40
56630;BME280;42502;40.732;-74.254;2023-06-26T01:36:46;99956.25;;;28.65;44.10
56630;BME280;42502;40.732;-74.254;2023-06-26T01:38:47;99958.88;;;28.52;43.54
56630;BME280;42502;40.732;-74.254;2023-06-26T01:40:47;99955.81;;;28.35;42.74
56630;BME280;42502;40.732;-74.254;2023-06-26T01:42:48;99954.78;;;28.22;42.47
56630;BME280;42502;40.732;-74.254;2023-06-26T01:44:49;99965.06;;;28.09;42.17
56630;BME280;42502;40.732;-74.254;2023-06-26T01:47:05;99957.16;;;27.89;43.04
56630;BME280;42502;40.732;-74.254;2023-06-26T01:51:46;99970.41;;;27.65;41.21
56630;BME280;42502;40.732;-74.254;2023-06-26T01:53:53;99959.19;;;27.51;41.10
56630;BME280;42502;40.732;-74.254;2023-06-26T01:56:00;99956.50;;;27.36;40.58
56630;BME280;42502;40.732;-74.254;2023-06-26T01:58:06;99960.56;;;27.28;39.66
56630;BME280;42502;40.732;-74.254;2023-06-26T02:00:08;99969.16;;;27.17;39.80
56630;BME280;42502;40.732;-74.254;2023-06-26T02:02:12;99977.72;;;27.10;39.44
56630;BME280;42502;40.732;-74.254;2023-06-26T02:04:13;99967.72;;;26.98;38.57
56630;BME280;42502;40.732;-74.254;2023-06-26T02:06:14;99968.97;;;26.90;39.29
56630;BME280;42502;40.732;-74.254;2023-06-26T02:08:15;99962.97;;;26.81;38.83
56630;BME280;42502;40.732;-74.254;2023-06-26T02:10:16;99967.06;;;26.72;38.94
56630;BME280;42502;40.732;-74.254;2023-06-26T02:12:17;99961.00;;;26.63;38.71
56630;BME280;42502;40.732;-74.254;2023-06-26T02:14:21;99953.34;;;26.56;38.23
56630;BME280;42502;40.732;-74.254;2023-06-26T02:16:25;99950.97;;;26.48;38.27
56630;BME280;42502;40.732;-74.254;2023-06-26T02:18:25;99948.59;;;26.42;38.23
56630;BME280;42502;40.732;-74.254;2023-06-26T02:20:26;99965.59;;;26.35;38.78
56630;BME280;42502;40.732;-74.254;2023-06-26T02:22:27;99965.22;;;26.30;39.58
56630;BME280;42502;40.732;-74.254;2023-06-26T02:24:29;99966.03;;;26.27;39.89
56630;BME280;42502;40.732;-74.254;2023-06-26T02:26:30;99964.03;;;26.23;40.17
56630;BME280;42502;40.732;-74.254;2023-06-26T02:28:31;99978.19;;;26.23;40.67
56630;BME280;42502;40.732;-74.254;2023-06-26T02:30:34;99971.72;;;26.30;41.29
56630;BME280;42502;40.732;-74.254;2023-06-26T02:32:34;99980.56;;;26.39;41.98
56630;BME280;42502;40.732;-74.254;2023-06-26T02:34:35;99982.13;;;26.48;43.00
56630;BME280;42502;40.732;-74.254;2023-06-26T02:36:36;99981.28;;;26.58;43.30
56630;BME280;42502;40.732;-74.254;2023-06-26T02:38:37;99980.06;;;26.66;43.92
56630;BME280;42502;40.732;-74.254;2023-06-26T02:40:38;99976.75;;;26.75;44.03
56630;BME280;42502;40.732;-74.254;2023-06-26T02:42:38;99989.66;;;26.83;44.66
56630;BME280;42502;40.732;-74.254;2023-06-26T02:44:39;99988.81;;;26.90;44.80
56630;BME280;42502;40.732;-74.254;2023-06-26T02:46:40;99988.75;;;26.97;45.12
56630;BME280;42502;40.732;-74.254;2023-06-26T02:48:50;99985.47;;;27.02;44.81
56630;BME280;42502;40.732;-74.254;2023-06-26T02:50:52;99982.19;;;27.11;45.56
56630;BME280;42502;40.732;-74.254;2023-06-26T02:52:53;99976.06;;;27.16;45.83
56630;BME280;42502;40.732;-74.254;2023-06-26T02:54:53;99980.47;;;27.21;46.46
56630;BME280;42502;40.732;-74.254;2023-06-26T02:56:54;99982.06;;;27.25;46.37
56630;BME280;42502;40.732;-74.254;2023-06-26T02:58:56;99988.09;;;27.31;46.36
56630;BME280;42502;40.732;-74.254;2023-06-26T03:00:56;99985.28;;;27.35;46.55
56630;BME280;42502;40.732;-74.254;2023-06-26T03:02:57;99983.19;;;27.39;46.89
56630;BME280;42502;40.732;-74.254;2023-06-26T03:04:58;99982.75;;;27.44;46.75
56630;BME280;42502;40.732;-74.254;2023-06-26T03:06:59;99990.44;;;27.47;47.05
56630;BME280;42502;40.732;-74.254;2023-06-26T03:09:00;99994.03;;;27.51;47.07
56630;BME280;42502;40.732;-74.254;2023-06-26T03:11:03;99983.09;;;27.53;46.86
56630;BME280;42502;40.732;-74.254;2023-06-26T03:13:04;99987.88;;;27.60;47.25
56630;BME280;42502;40.732;-74.254;2023-06-26T03:15:08;99981.78;;;27.61;46.90
56630;BME280;42502;40.732;-74.254;2023-06-26T03:17:08;99986.59;;;27.64;47.37
56630;BME280;42502;40.732;-74.254;2023-06-26T03:19:09;99990.66;;;27.67;46.96
56630;BME280;42502;40.732;-74.254;2023-06-26T03:21:10;100007.25;;;27.69;47.19
56630;BME280;42502;40.732;-74.254;2023-06-26T03:23:11;100006.84;;;27.70;47.51
56630;BME280;42502;40.732;-74.254;2023-06-26T03:25:12;100027.91;;;27.73;47.05
56630;BME280;42502;40.732;-74.254;2023-06-26T03:27:13;100027.47;;;27.74;46.97
56630;BME280;42502;40.732;-74.254;2023-06-26T03:29:14;100021.78;;;27.74;46.87
56630;BME280;42502;40.732;-74.254;2023-06-26T03:31:14;100018.53;;;27.76;47.03
56630;BME280;42502;40.732;-74.254;2023-06-26T03:33:15;100025.38;;;27.78;47.08
56630;BME280;42502;40.732;-74.254;2023-06-26T03:35:16;100018.50;;;27.79;47.64
56630;BME280;42502;40.732;-74.254;2023-06-26T03:37:17;100023.75;;;27.81;47.70
56630;BME280;42502;40.732;-74.254;2023-06-26T03:39:18;100028.22;;;27.82;47.41
56630;BME280;42502;40.732;-74.254;2023-06-26T03:41:18;100026.16;;;27.82;47.80
56630;BME280;42502;40.732;-74.254;2023-06-26T03:43:19;100032.22;;;27.84;47.46
56630;BME280;42502;40.732;-74.254;2023-06-26T03:45:20;100028.59;;;27.84;47.54
56630;BME280;42502;40.732;-74.254;2023-06-26T03:47:21;100022.50;;;27.86;47.96
56630;BME280;42502;40.732;-74.254;2023-06-26T03:49:22;100024.09;;;27.87;47.96
56630;BME280;42502;40.732;-74.254;2023-06-26T03:51:23;100029.78;;;27.87;47.91
56630;BME280;42502;40.732;-74.254;2023-06-26T03:53:23;100022.50;;;27.86;47.81
56630;BME280;42502;40.732;-74.254;2023-06-26T03:55:25;100014.75;;;27.86;47.94
56630;BME280;42502;40.732;-74.254;2023-06-26T03:57:25;100012.34;;;27.88;47.61
56630;BME280;42502;40.732;-74.254;2023-06-26T03:59:26;100009.06;;;27.90;48.00
56630;BME280;42502;40.732;-74.254;2023-06-26T04:01:27;100004.19;;;27.90;48.10
56630;BME280;42502;40.732;-74.254;2023-06-26T04:03:28;100002.97;;;27.91;48.02
56630;BME280;42502;40.732;-74.254;2023-06-26T04:05:29;100007.84;;;27.91;47.79
56630;BME280;42502;40.732;-74.254;2023-06-26T04:07:30;100012.28;;;27.92;47.93
56630;BME280;42502;40.732;-74.254;2023-06-26T04:09:31;100002.56;;;27.89;48.28
56630;BME280;42502;40.732;-74.254;2023-06-26T04:11:32;100011.06;;;27.93;47.83
56630;BME280;42502;40.732;-74.254;2023-06-26T04:13:33;100004.97;;;27.94;47.89
56630;BME280;42502;40.732;-74.254;2023-06-26T04:15:34;100009.84;;;27.94;48.48
56630;BME280;42502;40.732;-74.254;2023-06-26T04:17:34;100000.09;;;27.95;48.24
56630;BME280;42502;40.732;-74.254;2023-06-26T04:19:35;99997.69;;;27.97;48.26
56630;BME280;42502;40.732;-74.254;2023-06-26T04:21:36;99989.56;;;27.95;47.91
56630;BME280;42502;40.732;-74.254;2023-06-26T04:23:38;99979.03;;;27.96;48.40
56630;BME280;42502;40.732;-74.254;2023-06-26T04:25:39;99974.97;;;27.97;48.29
56630;BME280;42502;40.732;-74.254;2023-06-26T04:27:40;99965.22;;;27.98;48.36
56630;BME280;42502;40.732;-74.254;2023-06-26T04:29:41;99963.63;;;27.97;48.16
56630;BME280;42502;40.732;-74.254;2023-06-26T04:31:42;99963.19;;;27.98;48.05
56630;BME280;42502;40.732;-74.254;2023-06-26T04:33:47;99961.94;;;27.99;48.17
56630;BME280;42502;40.732;-74.254;2023-06-26T04:35:51;99959.94;;;28.00;48.58
56630;BME280;42502;40.732;-74.254;2023-06-26T04:37:52;99951.41;;;28.00;48.20
56630;BME280;42502;40.732;-74.254;2023-06-26T04:39:53;99944.91;;;27.99;48.56
56630;BME280;42502;40.732;-74.254;2023-06-26T04:41:54;99949.38;;;28.00;48.31
56630;BME280;42502;40.732;-74.254;2023-06-26T04:43:54;99946.53;;;28.00;48.43
56630;BME280;42502;40.732;-74.254;2023-06-26T04:45:56;99955.03;;;28.00;48.37
56630;BME280;42502;40.732;-74.254;2023-06-26T04:47:56;99952.22;;;28.00;48.10
56630;BME280;42502;40.732;-74.254;2023-06-26T04:49:58;99945.72;;;28.00;48.57
56630;BME280;42502;40.732;-74.254;2023-06-26T04:51:59;99954.63;;;28.02;48.35
56630;BME280;42502;40.732;-74.254;2023-06-26T04:54:00;99954.69;;;27.98;48.34
56630;BME280;42502;40.732;-74.254;2023-06-26T04:56:01;99960.31;;;28.02;48.21
56630;BME280;42502;40.732;-74.254;2023-06-26T04:58:02;99951.78;;;28.02;48.19
56630;BME280;42502;40.732;-74.254;2023-06-26T05:00:03;99953.81;;;28.02;48.21
56630;BME280;42502;40.732;-74.254;2023-06-26T05:02:10;99944.88;;;28.03;48.62
56630;BME280;42502;40.732;-74.254;2023-06-26T05:04:11;99958.25;;;28.03;48.13
56630;BME280;42502;40.732;-74.254;2023-06-26T05:06:12;99952.59;;;28.03;48.53
56630;BME280;42502;40.732;-74.254;2023-06-26T05:08:23;99951.78;;;28.02;48.14
56630;BME280;42502;40.732;-74.254;2023-06-26T05:10:26;99944.88;;;28.03;48.39
56630;BME280;42502;40.732;-74.254;2023-06-26T05:12:29;99945.69;;;28.04;48.59
56630;BME280;42502;40.732;-74.254;2023-06-26T05:14:30;99946.47;;;28.04;48.73
56630;BME280;42502;40.732;-74.254;2023-06-26T05:16:31;99940.00;;;28.04;48.14
56630;BME280;42502;40.732;-74.254;2023-06-26T05:18:32;99939.56;;;28.05;48.71
56630;BME280;42502;40.732;-74.254;2023-06-26T05:20:36;99933.53;;;28.03;48.21
56630;BME280;42502;40.732;-74.254;2023-06-26T05:22:37;99935.94;;;28.05;48.62
56630;BME280;42502;40.732;-74.254;2023-06-26T05:24:39;99938.78;;;28.05;48.12
56630;BME280;42502;40.732;-74.254;2023-06-26T05:26:41;99932.28;;;28.04;48.33
56630;BME280;42502;40.732;-74.254;2023-06-26T05:28:42;99931.50;;;28.04;48.83
56630;BME280;42502;40.732;-74.254;2023-06-26T05:30:44;99925.00;;;28.03;48.62
56630;BME280;42502;40.732;-74.254;2023-06-26T05:32:46;99934.31;;;28.04;48.74
56630;BME280;42502;40.732;-74.254;2023-06-26T05:34:49;99926.59;;;28.04;48.60
56630;BME280;42502;40.732;-74.254;2023-06-26T05:36:51;99924.59;;;28.05;48.77
56630;BME280;42502;40.732;-74.254;2023-06-26T05:38:52;99928.66;;;28.04;48.55
56630;BME280;42502;40.732;-74.254;2023-06-26T05:40:53;99942.41;;;28.05;48.43
56630;BME280;42502;40.732;-74.254;2023-06-26T05:42:54;99940.81;;;28.04;48.42
56630;BME280;42502;40.732;-74.254;2023-06-26T05:44:55;99931.50;;;28.04;48.54
56630;BME280;42502;40.732;-74.254;2023-06-26T05:46:58;99938.78;;;28.05;48.59
56630;BME280;42502;40.732;-74.254;2023-06-26T05:48:59;99942.03;;;28.03;48.41
56630;BME280;42502;40.732;-74.254;2023-06-26T05:51:01;99944.47;;;28.05;48.41
56630;BME280;42502;40.732;-74.254;2023-06-26T05:53:03;99945.25;;;28.05;48.80
56630;BME280;42502;40.732;-74.254;2023-06-26T05:55:04;99941.63;;;28.05;48.95
56630;BME280;42502;40.732;-74.254;2023-06-26T05:57:05;99935.13;;;28.04;48.46
56630;BME280;42502;40.732;-74.254;2023-06-26T05:59:07;99930.25;;;28.05;48.85
56630;BME280;42502;40.732;-74.254;2023-06-26T06:01:08;99932.28;;;28.04;49.04
56630;BME280;42502;40.732;-74.254;2023-06-26T06:03:10;99929.44;;;28.04;48.91
56630;BME280;42502;40.732;-74.254;2023-06-26T06:05:11;99932.28;;;28.04;49.07
56630;BME280;42502;40.732;-74.254;2023-06-26T06:07:12;99928.66;;;28.04;48.62
56630;BME280;42502;40.732;-74.254;2023-06-26T06:09:13;99925.00;;;28.03;48.78
56630;BME280;42502;40.732;-74.254;2023-06-26T06:11:13;99925.81;;;28.04;48.78
56630;BME280;42502;40.732;-74.254;2023-06-26T06:13:15;99921.34;;;28.03;48.58
56630;BME280;42502;40.732;-74.254;2023-06-26T06:15:16;99922.19;;;28.03;48.67
56630;BME280;42502;40.732;-74.254;2023-06-26T06:17:17;99920.94;;;28.04;48.65
56630;BME280;42502;40.732;-74.254;2023-06-26T06:19:18;99916.50;;;28.03;49.09
56630;BME280;42502;40.732;-74.254;2023-06-26T06:21:19;99910.81;;;28.03;48.78
56630;BME280;42502;40.732;-74.254;2023-06-26T06:23:19;99906.38;;;28.02;48.88
56630;BME280;42502;40.732;-74.254;2023-06-26T06:25:20;99904.31;;;28.03;48.80
56630;BME280;42502;40.732;-74.254;2023-06-26T06:27:24;99906.38;;;28.02;48.89
56630;BME280;42502;40.732;-74.254;2023-06-26T06:29:25;99904.75;;;28.01;48.50
56630;BME280;42502;40.732;-74.254;2023-06-26T06:31:25;99904.31;;;28.03;48.63
56630;BME280;42502;40.732;-74.254;2023-06-26T06:33:28;99912.03;;;28.02;48.56
56630;BME280;42502;40.732;-74.254;2023-06-26T06:35:32;99906.38;;;28.02;48.97
56630;BME280;42502;40.732;-74.254;2023-06-26T06:37:32;99909.19;;;28.02;48.48
56630;BME280;42502;40.732;-74.254;2023-06-26T06:39:33;99912.84;;;28.03;49.03
56630;BME280;42502;40.732;-74.254;2023-06-26T06:41:34;99910.41;;;28.01;49.00
56630;BME280;42502;40.732;-74.254;2023-06-26T06:43:35;99912.03;;;28.02;48.97
56630;BME280;42502;40.732;-74.254;2023-06-26T06:45:36;99908.41;;;28.02;48.83
56630;BME280;42502;40.732;-74.254;2023-06-26T06:47:38;99919.75;;;28.02;48.48
56630;BME280;42502;40.732;-74.254;2023-06-26T06:49:39;99910.00;;;28.03;48.99
56630;BME280;42502;40.732;-74.254;2023-06-26T06:51:39;99904.75;;;28.01;48.57
56630;BME280;42502;40.732;-74.254;2023-06-26T06:53:40;99899.88;;;28.02;49.03
56630;BME280;42502;40.732;-74.254;2023-06-26T06:55:41;99897.06;;;28.02;48.47
56630;BME280;42502;40.732;-74.254;2023-06-26T06:57:42;99895.44;;;28.00;48.64
56630;BME280;42502;40.732;-74.254;2023-06-26T06:59:43;99903.94;;;28.00;48.98
56630;BME280;42502;40.732;-74.254;2023-06-26T07:01:43;99901.09;;;28.00;49.05
56630;BME280;42502;40.732;-74.254;2023-06-26T07:03:44;99910.41;;;28.01;48.63
56630;BME280;42502;40.732;-74.254;2023-06-26T07:05:45;99912.47;;;28.00;48.68
56630;BME280;42502;40.732;-74.254;2023-06-26T07:07:46;99910.06;;;27.99;48.62
56630;BME280;42502;40.732;-74.254;2023-06-26T07:09:46;99905.16;;;27.99;48.53
56630;BME280;42502;40.732;-74.254;2023-06-26T07:11:47;99904.38;;;27.99;48.90
56630;BME280;42502;40.732;-74.254;2023-06-26T07:13:48;99900.31;;;28.00;48.51
56630;BME280;42502;40.732;-74.254;2023-06-26T07:15:49;99891.41;;;27.98;48.49
56630;BME280;42502;40.732;-74.254;2023-06-26T07:17:49;99889.81;;;27.97;48.93
56630;BME280;42502;40.732;-74.254;2023-06-26T07:19:50;99888.56;;;27.98;48.77
56630;BME280;42502;40.732;-74.254;2023-06-26T07:21:51;99891.41;;;27.98;48.58
56630;BME280;42502;40.732;-74.254;2023-06-26T07:23:52;99898.31;;;27.97;48.58
56630;BME280;42502;40.732;-74.254;2023-06-26T07:25:53;99901.22;;;27.90;48.81
56630;BME280;42502;40.732;-74.254;2023-06-26T07:27:53;99910.47;;;27.97;48.67
56630;BME280;42502;40.732;-74.254;2023-06-26T07:29:54;99918.19;;;27.97;48.44
56630;BME280;42502;40.732;-74.254;2023-06-26T07:31:55;99906.84;;;27.97;48.67
56630;BME280;42502;40.732;-74.254;2023-06-26T07:33:56;99903.56;;;27.95;48.87
56630;BME280;42502;40.732;-74.254;2023-06-26T07:35:57;99913.75;;;27.96;48.59
56630;BME280;42502;40.732;-74.254;2023-06-26T07:37:57;99906.00;;;27.96;48.37
56630;BME280;42502;40.732;-74.254;2023-06-26T07:39:58;99897.50;;;27.96;48.47
56630;BME280;42502;40.732;-74.254;2023-06-26T07:41:59;99893.88;;;27.96;48.87
56630;BME280;42502;40.732;-74.254;2023-06-26T07:44:00;99895.06;;;27.95;48.92
56630;BME280;42502;40.732;-74.254;2023-06-26T07:46:01;99887.38;;;27.95;48.81
56630;BME280;42502;40.732;-74.254;2023-06-26T07:48:01;99890.63;;;27.94;48.34
56630;BME280;42502;40.732;-74.254;2023-06-26T07:50:03;99892.22;;;27.95;48.40
56630;BME280;42502;40.732;-74.254;2023-06-26T07:52:04;99893.47;;;27.94;48.67
56630;BME280;42502;40.732;-74.254;2023-06-26T07:54:05;99889.81;;;27.93;48.35
56630;BME280;42502;40.732;-74.254;2023-06-26T07:56:06;99886.97;;;27.93;48.83
56630;BME280;42502;40.732;-74.254;2023-06-26T07:58:07;99886.16;;;27.93;48.39
56630;BME280;42502;40.732;-74.254;2023-06-26T08:00:09;99899.16;;;27.94;48.73
56630;BME280;42502;40.732;-74.254;2023-06-26T08:02:10;99897.53;;;27.93;48.53
56630;BME280;42502;40.732;-74.254;2023-06-26T08:04:11;99898.75;;;27.92;48.74
56630;BME280;42502;40.732;-74.254;2023-06-26T08:06:12;99901.59;;;27.92;48.56
56630;BME280;42502;40.732;-74.254;2023-06-26T08:08:12;99902.00;;;27.90;48.58
56630;BME280;42502;40.732;-74.254;2023-06-26T08:10:13;99910.91;;;27.92;48.71
56630;BME280;42502;40.732;-74.254;2023-06-26T08:12:14;99910.09;;;27.92;48.50
56630;BME280;42502;40.732;-74.254;2023-06-26T08:14:16;99917.81;;;27.91;48.32
56630;BME280;42502;40.732;-74.254;2023-06-26T08:16:16;99907.25;;;27.92;48.53
56630;BME280;42502;40.732;-74.254;2023-06-26T08:18:18;99914.97;;;27.91;48.63
56630;BME280;42502;40.732;-74.254;2023-06-26T08:20:19;99906.47;;;27.91;48.34
56630;BME280;42502;40.732;-74.254;2023-06-26T08:22:20;99894.78;;;27.86;48.51
56630;BME280;42502;40.732;-74.254;2023-06-26T08:24:21;99902.84;;;27.91;48.40
56630;BME280;42502;40.732;-74.254;2023-06-26T08:26:22;99901.59;;;27.92;48.39
56630;BME280;42502;40.732;-74.254;2023-06-26T08:28:22;99891.47;;;27.91;48.39
56630;BME280;42502;40.732;-74.254;2023-06-26T08:30:23;99878.59;;;27.82;48.61
56630;BME280;42502;40.732;-74.254;2023-06-26T08:32:28;99890.66;;;27.90;48.74
56630;BME280;42502;40.732;-74.254;2023-06-26T08:34:29;99895.53;;;27.90;48.32
56630;BME280;42502;40.732;-74.254;2023-06-26T08:36:30;99887.03;;;27.90;48.68
56630;BME280;42502;40.732;-74.254;2023-06-26T08:38:31;99887.03;;;27.86;48.35
56630;BME280;42502;40.732;-74.254;2023-06-26T08:40:31;99899.59;;;27.89;48.64
56630;BME280;42502;40.732;-74.254;2023-06-26T08:42:32;99892.28;;;27.88;48.62
56630;BME280;42502;40.732;-74.254;2023-06-26T08:44:33;99893.13;;;27.88;48.56
56630;BME280;42502;40.732;-74.254;2023-06-26T08:46:34;99896.75;;;27.89;48.27
56630;BME280;42502;40.732;-74.254;2023-06-26T08:48:36;99879.34;;;27.87;48.78
56630;BME280;42502;40.732;-74.254;2023-06-26T08:50:38;99885.41;;;27.89;48.57
56630;BME280;42502;40.732;-74.254;2023-06-26T08:55:02;99915.00;;;27.88;48.58
56630;BME280;42502;40.732;-74.254;2023-06-26T08:57:06;99912.59;;;27.86;48.55
56630;BME280;42502;40.732;-74.254;2023-06-26T08:59:08;99914.19;;;27.91;48.09
56630;BME280;42502;40.732;-74.254;2023-06-26T09:01:14;99923.91;;;27.90;48.14
56630;BME280;42502;40.732;-74.254;2023-06-26T09:03:15;99934.88;;;27.88;48.46
56630;BME280;42502;40.732;-74.254;2023-06-26T09:05:20;99929.19;;;27.88;48.28
56630;BME280;42502;40.732;-74.254;2023-06-26T09:07:21;99921.09;;;27.86;48.41
56630;BME280;42502;40.732;-74.254;2023-06-26T09:09:21;99913.44;;;27.83;48.30
56630;BME280;42502;40.732;-74.254;2023-06-26T09:11:22;99920.72;;;27.84;48.27
56630;BME280;42502;40.732;-74.254;2023-06-26T09:13:23;99913.44;;;27.83;48.59
56630;BME280;42502;40.732;-74.254;2023-06-26T09:15:27;99902.91;;;27.83;48.30
56630;BME280;42502;40.732;-74.254;2023-06-26T09:17:33;99897.22;;;27.83;48.72
56630;BME280;42502;40.732;-74.254;2023-06-26T09:19:38;99900.88;;;27.84;48.52
56630;BME280;42502;40.732;-74.254;2023-06-26T09:21:40;99895.63;;;27.82;48.44
56630;BME280;42502;40.732;-74.254;2023-06-26T09:23:41;99894.41;;;27.80;48.08
56630;BME280;42502;40.732;-74.254;2023-06-26T09:25:43;99883.47;;;27.82;48.41
56630;BME280;42502;40.732;-74.254;2023-06-26T09:27:45;99891.16;;;27.81;48.18
56630;BME280;42502;40.732;-74.254;2023-06-26T09:29:47;99885.47;;;27.81;48.64
56630;BME280;42502;40.732;-74.254;2023-06-26T09:31:51;99873.75;;;27.79;48.59
56630;BME280;42502;40.732;-74.254;2023-06-26T09:33:58;99879.44;;;27.79;48.68
56630;BME280;42502;40.732;-74.254;2023-06-26T09:36:00;99868.56;;;27.74;48.19
56630;BME280;42502;40.732;-74.254;2023-06-26T09:38:01;99870.91;;;27.79;48.56
56630;BME280;42502;40.732;-74.254;2023-06-26T09:40:02;99873.75;;;27.79;48.50
56630;BME280;42502;40.732;-74.254;2023-06-26T09:42:04;99884.31;;;27.79;48.56
56630;BME280;42502;40.732;-74.254;2023-06-26T09:44:05;99883.50;;;27.78;48.20
56630;BME280;42502;40.732;-74.254;2023-06-26T09:46:08;99890.78;;;27.79;48.25
56630;BME280;42502;40.732;-74.254;2023-06-26T09:48:08;99892.84;;;27.79;48.54
56630;BME280;42502;40.732;-74.254;2023-06-26T09:50:21;99891.63;;;27.76;48.16
56630;BME280;42502;40.732;-74.254;2023-06-26T09:52:26;99885.53;;;27.78;48.56
56630;BME280;42502;40.732;-74.254;2023-06-26T09:54:30;99889.16;;;27.78;48.55
56630;BME280;42502;40.732;-74.254;2023-06-26T09:56:32;99894.84;;;27.78;48.54
56630;BME280;42502;40.732;-74.254;2023-06-26T09:58:33;99883.91;;;27.77;48.21
56630;BME280;42502;40.732;-74.254;2023-06-26T10:00:37;99896.09;;;27.77;48.34
56630;BME280;42502;40.732;-74.254;2023-06-26T10:02:38;99896.09;;;27.77;48.11
56630;BME280;42502;40.732;-74.254;2023-06-26T10:04:39;99895.69;;;27.75;48.43
56630;BME280;42502;40.732;-74.254;2023-06-26T10:06:46;99911.50;;;27.76;48.44
56630;BME280;42502;40.732;-74.254;2023-06-26T10:08:50;99906.63;;;27.77;48.17
56630;BME280;42502;40.732;-74.254;2023-06-26T10:10:52;99902.19;;;27.76;48.22
56630;BME280;42502;40.732;-74.254;2023-06-26T10:12:59;99908.66;;;27.76;48.18
56630;BME280;42502;40.732;-74.254;2023-06-26T10:15:03;99916.81;;;27.74;48.08
56630;BME280;42502;40.732;-74.254;2023-06-26T10:17:09;99913.97;;;27.74;48.47
56630;BME280;42502;40.732;-74.254;2023-06-26T10:19:11;99920.00;;;27.76;48.59
56630;BME280;42502;40.732;-74.254;2023-06-26T10:21:14;99921.22;;;27.75;48.04
56630;BME280;42502;40.732;-74.254;2023-06-26T10:23:16;99922.06;;;27.76;48.45
56630;BME280;42502;40.732;-74.254;2023-06-26T10:25:19;99924.06;;;27.75;48.13
56630;BME280;42502;40.732;-74.254;2023-06-26T10:27:21;99923.28;;;27.75;48.25
56630;BME280;42502;40.732;-74.254;2023-06-26T10:29:24;99922.47;;;27.74;47.92
56630;BME280;42502;40.732;-74.254;2023-06-26T10:31:27;99916.81;;;27.74;48.51